createdAt,value
2018-06-11T00:01:41.859Z,22.33
2018-06-11T00:04:10.506Z,23.77
2018-06-11T00:06:38.972Z,24.93
2018-06-11T00:09:08.493Z,22.37
2018-06-11T00:11:37.424Z,23.67
2018-06-11T00:14:06.111Z,23.47
2018-06-11T00:16:35.035Z,27.60
2018-06-11T00:19:03.591Z,29.43
2018-06-11T00:21:32.271Z,30.90
2018-06-11T00:24:01.139Z,26.47
2018-06-11T00:26:29.726Z,29.57
2018-06-11T00:28:58.289Z,36.03
2018-06-11T00:31:27.604Z,31.43
2018-06-11T00:33:56.113Z,28.33
2018-06-11T00:36:24.784Z,30.97
2018-06-11T00:38:53.307Z,30.23
2018-06-11T00:41:22.007Z,33.97
2018-06-11T00:43:50.900Z,34.83
2018-06-11T00:46:19.420Z,32.37
2018-06-11T00:48:47.882Z,31.30
2018-06-11T00:51:16.768Z,34.87
2018-06-11T00:53:45.263Z,34.17
2018-06-11T00:56:13.744Z,33.93
2018-06-11T00:58:42.344Z,39.30
2018-06-11T01:01:10.853Z,33.90
2018-06-11T01:03:39.397Z,36.53
2018-06-11T01:06:07.878Z,35.43
2018-06-11T01:08:36.450Z,32.93
2018-06-11T01:11:04.973Z,37.73
2018-06-11T01:13:33.509Z,32.33
2018-06-11T01:16:02.008Z,32.47
2018-06-11T01:18:30.646Z,38.00
2018-06-11T01:20:59.360Z,38.83
2018-06-11T01:23:27.867Z,35.77
2018-06-11T01:25:56.571Z,32.03
2018-06-11T01:28:25.262Z,36.03
2018-06-11T01:30:53.753Z,36.27
2018-06-11T01:33:22.435Z,36.57
2018-06-11T01:35:50.954Z,37.13
2018-06-11T01:38:19.441Z,37.17
2018-06-11T01:40:47.958Z,33.77
2018-06-11T01:43:16.439Z,40.17
2018-06-11T01:45:45.277Z,37.77
2018-06-11T01:48:13.975Z,33.80
2018-06-11T01:50:42.462Z,40.60
2018-06-11T01:53:11.092Z,34.97
2018-06-11T01:55:39.644Z,36.37
2018-06-11T01:58:08.183Z,38.57
2018-06-11T02:00:36.799Z,37.97
2018-06-11T02:03:05.491Z,44.17
2018-06-11T02:05:34.006Z,35.87
2018-06-11T02:08:02.531Z,37.93
2018-06-11T02:10:31.064Z,35.07
2018-06-11T02:12:59.699Z,38.73
2018-06-11T02:15:28.399Z,40.57
2018-06-11T02:17:57.160Z,37.00
2018-06-11T02:20:25.534Z,38.37
2018-06-11T02:22:54.227Z,37.63
2018-06-11T02:25:22.962Z,35.93
2018-06-11T02:27:51.443Z,35.43
2018-06-11T02:30:20.065Z,34.87
2018-06-11T02:32:48.571Z,39.60
2018-06-11T02:35:17.067Z,33.67
2018-06-11T02:37:45.723Z,40.33
2018-06-11T02:40:14.259Z,33.40
2018-06-11T02:42:42.915Z,35.90
2018-06-11T02:45:11.453Z,40.60
2018-06-11T02:47:40.319Z,44.00
2018-06-11T02:50:08.787Z,36.23
2018-06-11T02:52:37.423Z,37.20
2018-06-11T02:55:06.254Z,40.33
2018-06-11T02:57:34.806Z,42.17
2018-06-11T03:00:03.415Z,39.93
2018-06-11T03:02:32.006Z,38.70
2018-06-11T03:05:00.560Z,35.97
2018-06-11T03:07:29.088Z,38.90
2018-06-11T03:09:57.636Z,42.90
2018-06-11T03:12:26.137Z,41.10
2018-06-11T03:14:55.218Z,41.77
2018-06-11T03:17:23.827Z,41.27
2018-06-11T03:19:52.412Z,39.33
2018-06-11T03:22:20.908Z,37.80
2018-06-11T03:24:49.427Z,38.63
2018-06-11T03:27:17.918Z,40.07
2018-06-11T03:29:46.443Z,37.53
2018-06-11T03:32:14.990Z,37.30
2018-06-11T03:34:43.487Z,39.57
2018-06-11T03:37:12.196Z,40.97
2018-06-11T03:39:40.765Z,36.73
2018-06-11T03:42:09.635Z,38.43
2018-06-11T03:44:38.270Z,35.53
2018-06-11T03:47:06.902Z,37.13
2018-06-11T03:49:35.420Z,37.10
2018-06-11T03:52:03.907Z,39.50
2018-06-11T03:54:32.732Z,34.73
2018-06-11T03:57:01.299Z,36.83
2018-06-11T03:59:29.825Z,38.73
2018-06-11T04:01:58.367Z,40.80
2018-06-11T04:04:26.915Z,43.30
2018-06-11T04:06:55.441Z,39.47
2018-06-11T04:09:23.945Z,43.20
2018-06-11T04:11:52.565Z,40.50
2018-06-11T04:14:21.130Z,38.47
2018-06-11T04:16:49.610Z,39.90
2018-06-11T04:19:18.343Z,36.70
2018-06-11T04:21:47.020Z,36.43
2018-06-11T04:24:15.719Z,38.50
2018-06-11T04:26:44.403Z,38.83
2018-06-11T04:29:13.104Z,37.10
2018-06-11T04:31:41.727Z,36.67
2018-06-11T04:34:10.317Z,36.33
2018-06-11T04:36:39.145Z,34.07
2018-06-11T04:39:08.414Z,34.33
2018-06-11T04:41:37.063Z,36.83
2018-06-11T04:44:05.591Z,33.23
2018-06-11T04:46:34.163Z,32.97
2018-06-11T04:49:02.877Z,37.07
2018-06-11T04:51:31.445Z,34.23
2018-06-11T04:54:00.317Z,37.83
2018-06-11T04:56:28.896Z,35.67
2018-06-11T04:58:57.424Z,36.93
2018-06-11T05:01:26.064Z,33.87
2018-06-11T05:03:54.832Z,31.70
2018-06-11T05:06:23.447Z,28.83
2018-06-11T05:08:51.994Z,32.30
2018-06-11T05:11:20.494Z,31.40
2018-06-11T05:13:49.125Z,26.27
2018-06-11T05:16:17.685Z,24.60
2018-06-11T05:18:46.322Z,26.30
2018-06-11T05:21:14.830Z,24.20
2018-06-11T05:23:43.535Z,25.87
2018-06-11T05:26:12.029Z,26.57
2018-06-11T05:28:40.667Z,27.90
2018-06-11T05:31:09.417Z,27.23
2018-06-11T05:33:37.758Z,28.97
2018-06-11T05:36:06.255Z,25.97
2018-06-11T05:38:34.798Z,26.53
2018-06-11T05:41:03.611Z,29.17
2018-06-11T05:43:32.095Z,26.80
2018-06-11T05:46:00.628Z,27.83
2018-06-11T05:48:29.605Z,30.43
2018-06-11T05:50:58.267Z,25.07
2018-06-11T05:53:26.821Z,29.30
2018-06-11T05:55:55.612Z,25.67
2018-06-11T05:58:24.347Z,26.60
2018-06-11T06:00:52.896Z,23.40
2018-06-11T06:03:21.433Z,23.47
2018-06-11T06:05:49.928Z,25.40
2018-06-11T06:08:18.677Z,25.90
2018-06-11T06:10:47.157Z,24.37
2018-06-11T06:13:15.844Z,26.10
2018-06-11T06:15:44.507Z,25.30
2018-06-11T06:18:13.020Z,21.63
2018-06-11T06:20:41.515Z,22.97
2018-06-11T06:23:10.055Z,20.23
2018-06-11T06:25:38.539Z,21.17
2018-06-11T06:28:07.101Z,20.03
2018-06-11T06:30:35.701Z,21.77
2018-06-11T06:33:04.502Z,19.17
2018-06-11T06:35:33.177Z,20.33
2018-06-11T06:38:01.670Z,18.17
2018-06-11T06:40:30.773Z,18.20
2018-06-11T06:42:59.247Z,18.17
2018-06-11T06:45:27.724Z,16.77
2018-06-11T06:47:56.435Z,19.90
2018-06-11T06:50:24.951Z,23.03
2018-06-11T06:52:53.513Z,17.50
2018-06-11T06:55:22.301Z,20.37
2018-06-11T06:57:50.850Z,20.10
2018-06-11T07:00:19.344Z,19.63
2018-06-11T07:02:47.963Z,19.53
2018-06-11T07:05:16.493Z,21.27
2018-06-11T07:07:45.061Z,22.33
2018-06-11T07:10:13.990Z,23.73
2018-06-11T07:12:42.659Z,22.50
2018-06-11T07:15:11.219Z,24.73
2018-06-11T07:17:39.812Z,20.70
2018-06-11T07:20:08.460Z,23.37
2018-06-11T07:22:37.725Z,24.90
2018-06-11T07:25:06.607Z,21.90
2018-06-11T07:27:35.296Z,23.50
2018-06-11T07:30:03.911Z,19.90
2018-06-11T07:32:32.597Z,25.37
2018-06-11T07:35:01.092Z,20.20
2018-06-11T07:37:29.654Z,21.27
2018-06-11T07:39:58.223Z,21.33
2018-06-11T07:42:26.706Z,21.17
2018-06-11T07:44:55.311Z,23.60
2018-06-11T07:47:25.010Z,21.33
2018-06-11T07:49:53.514Z,21.20
2018-06-11T07:52:22.108Z,19.40
2018-06-11T07:54:50.631Z,18.73
2018-06-11T07:57:19.331Z,19.70
2018-06-11T07:59:47.855Z,18.07
2018-06-11T08:02:16.427Z,18.17
2018-06-11T08:04:45.001Z,19.33
2018-06-11T08:07:13.652Z,22.03
2018-06-11T08:09:42.185Z,18.83
2018-06-11T08:12:10.662Z,21.50
2018-06-11T08:14:39.165Z,19.77
2018-06-11T08:17:07.827Z,22.37
2018-06-11T08:19:36.333Z,24.60
2018-06-11T08:22:05.359Z,18.57
2018-06-11T08:24:34.040Z,21.87
2018-06-11T08:27:02.742Z,19.63
2018-06-11T08:29:31.346Z,21.97
2018-06-11T08:31:59.874Z,19.77
2018-06-11T08:34:28.369Z,19.57
2018-06-11T08:36:57.387Z,17.67
2018-06-11T08:39:25.962Z,17.33
2018-06-11T08:41:54.620Z,19.03
2018-06-11T08:44:23.112Z,15.50
2018-06-11T08:46:51.487Z,15.53
2018-06-11T08:49:20.199Z,15.47
2018-06-11T08:51:48.782Z,16.27
2018-06-11T08:54:17.462Z,17.07
2018-06-11T08:56:45.967Z,15.85
2018-06-11T08:59:14.520Z,16.70
2018-06-11T09:01:43.233Z,14.87
2018-06-11T09:04:11.864Z,13.85
2018-06-11T09:06:40.436Z,13.30
2018-06-11T09:09:09.343Z,15.38
2018-06-11T09:11:38.015Z,17.10
2018-06-11T09:14:06.500Z,16.27
2018-06-11T09:16:35.289Z,16.65
2018-06-11T09:19:03.803Z,16.82
2018-06-11T09:21:32.528Z,17.07
2018-06-11T09:24:01.273Z,15.43
2018-06-11T09:26:30.022Z,15.85
2018-06-11T09:28:58.661Z,13.25
2018-06-11T09:31:27.401Z,12.90
2018-06-11T09:33:56.112Z,14.23
2018-06-11T09:36:24.632Z,13.30
2018-06-11T09:38:53.181Z,12.65
2018-06-11T09:41:21.555Z,14.25
2018-06-11T09:43:50.063Z,11.08
2018-06-11T09:46:18.742Z,11.03
2018-06-11T09:48:47.219Z,12.30
2018-06-11T09:51:15.918Z,15.38
2018-06-11T09:53:44.603Z,13.90
2018-06-11T09:56:13.120Z,12.78
2018-06-11T09:58:41.846Z,13.93
2018-06-11T10:01:10.419Z,15.05
2018-06-11T10:03:39.020Z,13.43
2018-06-11T10:06:07.601Z,14.13
2018-06-11T10:08:36.208Z,13.32
2018-06-11T10:11:04.880Z,10.98
2018-06-11T10:13:33.483Z,11.55
2018-06-11T10:16:02.179Z,12.28
2018-06-11T10:18:31.194Z,14.53
2018-06-11T10:20:59.736Z,12.93
2018-06-11T10:23:28.291Z,12.65
2018-06-11T10:25:57.108Z,11.90
2018-06-11T10:28:25.724Z,13.98
2018-06-11T10:30:54.315Z,14.00
2018-06-11T10:33:22.860Z,14.73
2018-06-11T10:35:51.584Z,13.32
2018-06-11T10:38:20.225Z,11.08
2018-06-11T10:40:49.066Z,10.78
2018-06-11T10:43:17.605Z,9.40
2018-06-11T10:45:46.125Z,12.37
2018-06-11T10:48:14.630Z,11.43
2018-06-11T10:50:43.353Z,12.25
2018-06-11T10:53:11.867Z,13.40
2018-06-11T10:55:40.404Z,11.90
2018-06-11T10:58:09.127Z,14.53
2018-06-11T11:00:37.835Z,11.28
2018-06-11T11:03:06.628Z,9.05
2018-06-11T11:05:35.245Z,10.13
2018-06-11T11:08:03.776Z,9.30
2018-06-11T11:10:32.458Z,8.58
2018-06-11T11:13:01.484Z,8.85
2018-06-11T11:15:30.059Z,7.70
2018-06-11T11:17:58.755Z,10.43
2018-06-11T11:20:27.480Z,9.05
2018-06-11T11:22:55.996Z,9.48
2018-06-11T11:25:24.662Z,10.63
2018-06-11T11:27:53.372Z,9.43
2018-06-11T11:30:21.858Z,7.08
2018-06-11T11:32:50.377Z,7.65
2018-06-11T11:35:18.945Z,7.35
2018-06-11T11:37:47.558Z,7.62
2018-06-11T11:40:16.175Z,11.33
2018-06-11T11:42:44.633Z,7.05
2018-06-11T11:45:13.430Z,9.03
2018-06-11T11:47:42.083Z,6.87
2018-06-11T11:50:10.236Z,6.90
2018-06-11T11:52:38.789Z,7.53
2018-06-11T11:55:07.270Z,6.40
2018-06-11T11:57:35.994Z,7.97
2018-06-11T12:00:05.317Z,6.45
2018-06-11T12:02:33.836Z,7.05
2018-06-11T12:05:02.425Z,6.40
2018-06-11T12:07:31.376Z,6.70
2018-06-11T12:09:59.995Z,5.50
2018-06-11T12:12:28.671Z,6.40
2018-06-11T12:14:57.621Z,8.53
2018-06-11T12:17:26.233Z,6.40
2018-06-11T12:19:54.950Z,6.30
2018-06-11T12:22:23.487Z,6.35
2018-06-11T12:24:52.135Z,6.08
2018-06-11T12:27:20.718Z,7.22
2018-06-11T12:29:49.407Z,6.12
2018-06-11T12:32:18.247Z,7.33
2018-06-11T12:34:47.133Z,5.80
2018-06-11T12:37:15.621Z,5.17
2018-06-11T12:39:44.171Z,4.97
2018-06-11T12:42:12.658Z,5.25
2018-06-11T12:44:41.403Z,5.12
2018-06-11T12:47:10.101Z,5.95
2018-06-11T12:49:38.830Z,5.25
2018-06-11T12:52:07.648Z,5.40
2018-06-11T12:54:36.146Z,4.58
2018-06-11T12:57:05.000Z,6.00
2018-06-11T12:59:33.757Z,5.67
2018-06-11T13:02:02.400Z,4.95
2018-06-11T13:04:31.069Z,5.33
2018-06-11T13:06:59.826Z,5.30
2018-06-11T13:09:28.445Z,5.53
2018-06-11T13:11:57.670Z,6.87
2018-06-11T13:14:26.360Z,5.55
2018-06-11T13:16:54.992Z,7.05
2018-06-11T13:19:23.561Z,5.75
2018-06-11T13:21:52.322Z,6.85
2018-06-11T13:24:21.081Z,6.75
2018-06-11T13:26:50.093Z,5.28
2018-06-11T13:29:18.932Z,5.70
2018-06-11T13:31:47.578Z,5.55
2018-06-11T13:34:16.289Z,7.72
2018-06-11T13:36:45.050Z,7.85
2018-06-11T13:39:13.796Z,7.33
2018-06-11T13:41:42.521Z,6.30
2018-06-11T13:44:11.176Z,6.53
2018-06-11T13:46:39.827Z,7.30
2018-06-11T13:49:08.536Z,6.55
2018-06-11T13:51:37.435Z,7.40
2018-06-11T13:54:06.081Z,6.35
2018-06-11T13:56:34.632Z,6.92
2018-06-11T13:59:03.428Z,7.40
2018-06-11T14:01:32.065Z,6.80
2018-06-11T14:04:00.668Z,7.62
2018-06-11T14:06:29.373Z,7.30
2018-06-11T14:08:57.919Z,7.67
2018-06-11T14:11:26.511Z,7.92
2018-06-11T14:13:55.245Z,7.33
2018-06-11T14:16:23.639Z,7.30
2018-06-11T14:18:52.378Z,7.05
2018-06-11T14:21:20.971Z,6.45
2018-06-11T14:23:49.802Z,7.42
2018-06-11T14:26:18.472Z,5.50
2018-06-11T14:28:47.040Z,5.90
2018-06-11T14:31:15.604Z,5.72
2018-06-11T14:33:44.340Z,6.58
2018-06-11T14:36:13.103Z,6.92
2018-06-11T14:38:41.664Z,6.42
2018-06-11T14:41:10.252Z,6.87
2018-06-11T14:43:39.086Z,5.97
2018-06-11T14:46:07.995Z,4.90
2018-06-11T14:48:36.523Z,5.05
2018-06-11T14:51:05.469Z,5.45
2018-06-11T14:53:34.497Z,6.58
2018-06-11T14:56:03.220Z,9.48
2018-06-11T14:58:32.169Z,8.33
2018-06-11T15:01:00.848Z,7.35
2018-06-11T15:03:29.601Z,7.92
2018-06-11T15:05:58.149Z,7.50
2018-06-11T15:08:26.975Z,7.83
2018-06-11T15:10:55.788Z,7.97
2018-06-11T15:13:24.650Z,7.08
2018-06-11T15:15:53.474Z,7.85
2018-06-11T15:18:22.554Z,8.30
2018-06-11T15:20:51.309Z,6.60
2018-06-11T15:23:20.117Z,7.47
2018-06-11T15:25:48.572Z,6.62
2018-06-11T15:28:17.342Z,7.95
2018-06-11T15:30:45.939Z,6.95
2018-06-11T15:33:14.942Z,8.58
2018-06-11T15:35:43.813Z,7.75
2018-06-11T15:38:12.622Z,7.75
2018-06-11T15:40:41.367Z,6.25
2018-06-11T15:43:10.153Z,6.53
2018-06-11T15:45:39.164Z,8.28
2018-06-11T15:48:07.823Z,6.85
2018-06-11T15:50:36.337Z,6.65
2018-06-11T15:53:05.082Z,11.22
2018-06-11T15:55:33.596Z,8.38
2018-06-11T15:58:02.853Z,7.70
2018-06-11T16:00:31.597Z,9.17
2018-06-11T16:03:00.748Z,8.97
2018-06-11T16:05:29.465Z,7.47
2018-06-11T16:07:58.395Z,8.70
2018-06-11T16:10:27.146Z,7.10
2018-06-11T16:12:55.732Z,6.53
2018-06-11T16:15:24.770Z,7.03
2018-06-11T16:17:53.553Z,7.07
2018-06-11T16:20:22.370Z,7.10
2018-06-11T16:22:51.000Z,7.50
2018-06-11T16:25:19.888Z,7.33
2018-06-11T16:27:48.906Z,7.07
2018-06-11T16:30:17.872Z,7.13
2018-06-11T16:32:46.716Z,7.67
2018-06-11T16:35:15.491Z,7.60
2018-06-11T16:37:44.069Z,7.70
2018-06-11T16:40:12.840Z,7.93
2018-06-11T16:42:41.530Z,7.87
2018-06-11T16:45:10.738Z,8.33
2018-06-11T16:47:39.406Z,11.63
2018-06-11T16:50:08.107Z,8.93
2018-06-11T16:52:37.199Z,6.13
2018-06-11T16:55:06.081Z,8.40
2018-06-11T16:57:34.935Z,7.80
2018-06-11T17:00:03.680Z,7.87
2018-06-11T17:02:32.453Z,9.93
2018-06-11T17:05:01.561Z,7.73
2018-06-11T17:07:30.550Z,6.80
2018-06-11T17:09:59.229Z,7.90
2018-06-11T17:12:28.014Z,8.67
2018-06-11T17:14:56.575Z,8.00
2018-06-11T17:17:25.347Z,8.70
2018-06-11T17:19:53.923Z,9.43
2018-06-11T17:22:22.803Z,9.13
2018-06-11T17:24:51.767Z,7.93
2018-06-11T17:27:20.622Z,9.23
2018-06-11T17:29:49.186Z,7.93
2018-06-11T17:32:18.038Z,7.60
2018-06-11T17:34:47.345Z,7.83
2018-06-11T17:37:16.317Z,8.00
2018-06-11T17:39:45.101Z,7.80
2018-06-11T17:42:14.110Z,7.40
2018-06-11T17:44:42.973Z,7.77
2018-06-11T17:47:11.720Z,6.93
2018-06-11T17:49:40.605Z,8.43
2018-06-11T17:52:09.439Z,6.97
2018-06-11T17:54:38.253Z,8.23
2018-06-11T17:57:07.272Z,7.27
2018-06-11T17:59:36.018Z,7.80
2018-06-11T18:02:04.790Z,7.37
2018-06-11T18:04:33.757Z,7.20
2018-06-11T18:07:02.630Z,8.70
2018-06-11T18:09:31.697Z,8.83
2018-06-11T18:12:00.770Z,8.77
2018-06-11T18:14:29.630Z,7.10
2018-06-11T18:16:58.512Z,6.33
2018-06-11T18:19:27.622Z,7.70
2018-06-11T18:21:56.569Z,7.63
2018-06-11T18:24:25.391Z,7.13
2018-06-11T18:26:54.228Z,7.37
2018-06-11T18:29:23.441Z,8.37
2018-06-11T18:31:52.178Z,6.50
2018-06-11T18:34:20.828Z,6.67
2018-06-11T18:36:49.661Z,7.63
2018-06-11T18:39:19.697Z,7.17
2018-06-11T18:41:48.671Z,6.53
2018-06-11T18:44:17.428Z,6.53
2018-06-11T18:46:46.341Z,6.70
2018-06-11T18:49:15.578Z,7.50
2018-06-11T18:51:44.693Z,9.30
2018-06-11T18:54:13.297Z,6.97
2018-06-11T18:56:42.327Z,8.07
2018-06-11T18:59:11.274Z,7.30
2018-06-11T19:01:40.338Z,6.83
2018-06-11T19:04:09.466Z,7.40
2018-06-11T19:06:38.119Z,8.03
2018-06-11T19:09:08.619Z,9.63
2018-06-11T19:11:38.214Z,9.23
2018-06-11T19:14:07.126Z,8.43
2018-06-11T19:16:36.131Z,9.73
2018-06-11T19:19:04.892Z,6.80
2018-06-11T19:21:33.765Z,7.57
2018-06-11T19:24:02.432Z,8.30
2018-06-11T19:26:31.127Z,8.37
2018-06-11T19:28:59.910Z,9.30
2018-06-11T19:31:29.190Z,8.30
2018-06-11T19:33:57.921Z,7.50
2018-06-11T19:36:27.009Z,7.00
2018-06-11T19:38:55.809Z,8.47
2018-06-11T19:41:24.779Z,9.37
2018-06-11T19:43:53.842Z,9.07
2018-06-11T19:46:22.980Z,7.67
2018-06-11T19:48:52.151Z,9.60
2018-06-11T19:51:20.906Z,8.77
2018-06-11T19:53:49.974Z,6.87
2018-06-11T19:56:18.397Z,7.80
2018-06-11T19:58:47.274Z,7.53
2018-06-11T20:01:15.911Z,11.43
2018-06-11T20:03:44.982Z,7.30
2018-06-11T20:06:13.754Z,8.30
2018-06-11T20:08:42.667Z,9.80
2018-06-11T20:11:11.297Z,8.40
2018-06-11T20:13:39.871Z,8.73
2018-06-11T20:16:08.420Z,9.90
2018-06-11T20:18:37.339Z,10.27
2018-06-11T20:21:06.125Z,8.27
2018-06-11T20:23:34.766Z,9.80
2018-06-11T20:26:03.496Z,11.23
2018-06-11T20:28:32.349Z,9.70
2018-06-11T20:31:00.959Z,8.10
2018-06-11T20:33:29.982Z,9.37
2018-06-11T20:35:58.622Z,10.07
2018-06-11T20:38:27.334Z,10.03
2018-06-11T20:40:55.954Z,8.47
2018-06-11T20:43:24.647Z,8.13
2018-06-11T20:45:53.568Z,8.97
2018-06-11T20:48:22.506Z,9.77
2018-06-11T20:50:51.374Z,8.47
2018-06-11T20:53:20.474Z,9.00
2018-06-11T20:55:49.243Z,10.50
2018-06-11T20:58:17.941Z,9.60
2018-06-11T21:00:46.940Z,11.93
2018-06-11T21:03:15.628Z,17.00
2018-06-11T21:05:44.201Z,8.87
2018-06-11T21:08:12.986Z,9.07
2018-06-11T21:10:41.835Z,13.77
2018-06-11T21:13:10.616Z,9.57
2018-06-11T21:15:39.376Z,9.67
2018-06-11T21:18:08.172Z,17.43
2018-06-11T21:20:37.080Z,11.80
2018-06-11T21:23:05.652Z,9.23
2018-06-11T21:25:34.170Z,11.40
2018-06-11T21:28:02.888Z,13.60
2018-06-11T21:30:31.697Z,11.57
2018-06-11T21:33:00.305Z,10.90
2018-06-11T21:35:29.146Z,10.47
2018-06-11T21:37:57.696Z,10.60
2018-06-11T21:40:26.520Z,13.07
2018-06-11T21:42:55.085Z,12.03
2018-06-11T21:45:23.969Z,12.03
2018-06-11T21:47:52.485Z,10.37
2018-06-11T21:50:20.804Z,9.93
2018-06-11T21:52:49.422Z,11.67
2018-06-11T21:55:18.308Z,9.90
2018-06-11T21:57:46.848Z,10.97
2018-06-11T22:00:16.417Z,12.77
2018-06-11T22:02:45.052Z,11.93
2018-06-11T22:05:13.735Z,12.83
2018-06-11T22:07:42.530Z,12.53
2018-06-11T22:10:11.045Z,11.30
2018-06-11T22:12:39.584Z,11.43
2018-06-11T22:15:08.120Z,12.03
2018-06-11T22:17:36.710Z,13.83
2018-06-11T22:20:05.109Z,19.87
2018-06-11T22:22:33.674Z,11.23
2018-06-11T22:25:02.923Z,11.47
2018-06-11T22:27:31.671Z,11.97
2018-06-11T22:30:00.430Z,12.90
2018-06-11T22:32:29.026Z,14.80
2018-06-11T22:34:58.160Z,12.80
2018-06-11T22:37:26.699Z,12.60
2018-06-11T22:39:55.465Z,11.53
2018-06-11T22:42:24.203Z,15.80
2018-06-11T22:44:52.919Z,12.80
2018-06-11T22:47:21.743Z,11.90
2018-06-11T22:49:50.227Z,14.70
2018-06-11T22:52:18.741Z,16.67
2018-06-11T22:54:47.337Z,10.13
2018-06-11T22:57:15.832Z,12.57
2018-06-11T22:59:44.318Z,10.77
2018-06-11T23:02:13.081Z,12.53
2018-06-11T23:04:42.085Z,13.50
2018-06-11T23:07:11.176Z,13.13
2018-06-11T23:09:39.672Z,15.87
2018-06-11T23:12:08.194Z,13.40
2018-06-11T23:14:36.818Z,9.97
2018-06-11T23:17:05.332Z,12.07
2018-06-11T23:19:33.861Z,12.47
2018-06-11T23:22:03.228Z,10.17
2018-06-11T23:24:31.751Z,12.27
2018-06-11T23:27:00.264Z,11.77
2018-06-11T23:29:28.780Z,10.10
2018-06-11T23:31:57.418Z,10.90
2018-06-11T23:34:26.057Z,12.67
2018-06-11T23:36:54.545Z,11.70
2018-06-11T23:39:22.730Z,12.77
2018-06-11T23:41:51.438Z,11.70
2018-06-11T23:44:20.252Z,12.80
2018-06-11T23:46:48.808Z,14.60
2018-06-11T23:49:17.461Z,19.07
2018-06-11T23:51:45.964Z,12.27
2018-06-11T23:54:14.467Z,10.97
2018-06-11T23:56:43.086Z,13.27
2018-06-11T23:59:11.652Z,12.73
